sensor_id;sensor_type;location;lat;lon;timestamp;temperature;humidity
48579;DHT22;34357;51.948;6.132;2022-08-19T00:00:28;18.70;86.80
48579;DHT22;34357;51.948;6.132;2022-08-19T00:02:54;18.70;87.00
48579;DHT22;34357;51.948;6.132;2022-08-19T00:05:21;18.70;87.00
48579;DHT22;34357;51.948;6.132;2022-08-19T00:07:48;18.70;87.00
48579;DHT22;34357;51.948;6.132;2022-08-19T00:10:15;18.70;87.10
48579;DHT22;34357;51.948;6.132;2022-08-19T00:12:42;18.60;87.10
48579;DHT22;34357;51.948;6.132;2022-08-19T00:15:10;18.60;87.30
48579;DHT22;34357;51.948;6.132;2022-08-19T00:17:39;18.70;87.50
48579;DHT22;34357;51.948;6.132;2022-08-19T00:20:06;18.60;87.30
48579;DHT22;34357;51.948;6.132;2022-08-19T00:22:32;18.50;87.20
48579;DHT22;34357;51.948;6.132;2022-08-19T00:24:58;18.60;87.40
48579;DHT22;34357;51.948;6.132;2022-08-19T00:27:23;18.50;87.40
48579;DHT22;34357;51.948;6.132;2022-08-19T00:29:49;18.50;87.30
48579;DHT22;34357;51.948;6.132;2022-08-19T00:32:14;18.50;87.50
48579;DHT22;34357;51.948;6.132;2022-08-19T00:34:40;18.50;87.90
48579;DHT22;34357;51.948;6.132;2022-08-19T00:37:06;18.50;87.70
48579;DHT22;34357;51.948;6.132;2022-08-19T00:39:31;18.50;87.50
48579;DHT22;34357;51.948;6.132;2022-08-19T00:41:57;18.40;87.60
48579;DHT22;34357;51.948;6.132;2022-08-19T00:44:27;18.40;87.60
48579;DHT22;34357;51.948;6.132;2022-08-19T00:46:55;18.40;87.70
48579;DHT22;34357;51.948;6.132;2022-08-19T00:49:34;18.30;87.70
48579;DHT22;34357;51.948;6.132;2022-08-19T00:52:24;18.30;87.80
48579;DHT22;34357;51.948;6.132;2022-08-19T00:54:52;18.30;87.90
48579;DHT22;34357;51.948;6.132;2022-08-19T00:57:22;18.20;87.90
48579;DHT22;34357;51.948;6.132;2022-08-19T00:59:52;18.20;88.00
48579;DHT22;34357;51.948;6.132;2022-08-19T01:02:20;18.20;88.00
48579;DHT22;34357;51.948;6.132;2022-08-19T01:04:45;18.10;87.90
48579;DHT22;34357;51.948;6.132;2022-08-19T01:07:12;18.10;88.10
48579;DHT22;34357;51.948;6.132;2022-08-19T01:09:37;18.10;88.10
48579;DHT22;34357;51.948;6.132;2022-08-19T01:12:03;18.10;88.30
48579;DHT22;34357;51.948;6.132;2022-08-19T01:14:30;18.00;88.20
48579;DHT22;34357;51.948;6.132;2022-08-19T01:16:57;18.00;88.30
48579;DHT22;34357;51.948;6.132;2022-08-19T01:19:36;18.00;88.50
48579;DHT22;34357;51.948;6.132;2022-08-19T01:22:08;18.00;88.40
48579;DHT22;34357;51.948;6.132;2022-08-19T01:24:37;18.00;88.40
48579;DHT22;34357;51.948;6.132;2022-08-19T01:27:06;18.00;88.30
48579;DHT22;34357;51.948;6.132;2022-08-19T01:29:32;18.00;88.20
48579;DHT22;34357;51.948;6.132;2022-08-19T01:31:59;18.00;88.30
48579;DHT22;34357;51.948;6.132;2022-08-19T01:34:26;17.90;88.20
48579;DHT22;34357;51.948;6.132;2022-08-19T01:36:51;17.90;88.40
48579;DHT22;34357;51.948;6.132;2022-08-19T01:39:21;17.90;88.40
48579;DHT22;34357;51.948;6.132;2022-08-19T01:41:47;17.90;88.50
48579;DHT22;34357;51.948;6.132;2022-08-19T01:44:14;17.90;88.50
48579;DHT22;34357;51.948;6.132;2022-08-19T01:46:40;17.80;88.50
48579;DHT22;34357;51.948;6.132;2022-08-19T01:49:07;17.80;88.50
48579;DHT22;34357;51.948;6.132;2022-08-19T01:51:33;17.70;88.70
48579;DHT22;34357;51.948;6.132;2022-08-19T01:53:59;17.60;88.80
48579;DHT22;34357;51.948;6.132;2022-08-19T01:56:25;17.60;89.00
48579;DHT22;34357;51.948;6.132;2022-08-19T01:58:57;17.60;88.80
48579;DHT22;34357;51.948;6.132;2022-08-19T02:01:24;17.60;88.80
48579;DHT22;34357;51.948;6.132;2022-08-19T02:03:49;17.60;88.80
48579;DHT22;34357;51.948;6.132;2022-08-19T02:06:17;17.60;89.00
48579;DHT22;34357;51.948;6.132;2022-08-19T02:08:43;17.60;89.00
48579;DHT22;34357;51.948;6.132;2022-08-19T02:11:22;17.70;89.00
48579;DHT22;34357;51.948;6.132;2022-08-19T02:13:48;17.70;88.80
48579;DHT22;34357;51.948;6.132;2022-08-19T02:16:16;17.70;88.90
48579;DHT22;34357;51.948;6.132;2022-08-19T02:18:42;17.70;88.90
48579;DHT22;34357;51.948;6.132;2022-08-19T02:21:07;17.70;88.90
48579;DHT22;34357;51.948;6.132;2022-08-19T02:23:33;17.60;88.90
48579;DHT22;34357;51.948;6.132;2022-08-19T02:25:59;17.60;89.10
48579;DHT22;34357;51.948;6.132;2022-08-19T02:28:24;17.60;89.10
48579;DHT22;34357;51.948;6.132;2022-08-19T02:30:50;17.60;89.10
48579;DHT22;34357;51.948;6.132;2022-08-19T02:33:16;17.50;89.30
48579;DHT22;34357;51.948;6.132;2022-08-19T02:35:45;17.50;89.00
48579;DHT22;34357;51.948;6.132;2022-08-19T02:38:12;17.40;89.10
48579;DHT22;34357;51.948;6.132;2022-08-19T02:40:57;17.40;89.20
48579;DHT22;34357;51.948;6.132;2022-08-19T02:43:23;17.40;89.10
48579;DHT22;34357;51.948;6.132;2022-08-19T02:45:50;17.40;89.20
48579;DHT22;34357;51.948;6.132;2022-08-19T02:48:18;17.30;89.30
48579;DHT22;34357;51.948;6.132;2022-08-19T02:50:44;17.30;89.20
48579;DHT22;34357;51.948;6.132;2022-08-19T02:53:10;17.30;89.20
48579;DHT22;34357;51.948;6.132;2022-08-19T02:55:37;17.20;89.30
48579;DHT22;34357;51.948;6.132;2022-08-19T02:58:07;17.20;89.20
48579;DHT22;34357;51.948;6.132;2022-08-19T03:00:32;17.20;89.40
48579;DHT22;34357;51.948;6.132;2022-08-19T03:02:58;17.10;89.30
48579;DHT22;34357;51.948;6.132;2022-08-19T03:05:25;17.10;89.50
48579;DHT22;34357;51.948;6.132;2022-08-19T03:07:53;17.10;89.50
48579;DHT22;34357;51.948;6.132;2022-08-19T03:10:19;17.10;89.50
48579;DHT22;34357;51.948;6.132;2022-08-19T03:12:44;17.10;89.50
48579;DHT22;34357;51.948;6.132;2022-08-19T03:15:11;17.00;89.60
48579;DHT22;34357;51.948;6.132;2022-08-19T03:17:37;17.00;89.90
48579;DHT22;34357;51.948;6.132;2022-08-19T03:20:04;17.00;89.60
48579;DHT22;34357;51.948;6.132;2022-08-19T03:22:30;17.00;89.70
48579;DHT22;34357;51.948;6.132;2022-08-19T03:24:56;17.00;89.80
48579;DHT22;34357;51.948;6.132;2022-08-19T03:27:21;16.90;89.60
48579;DHT22;34357;51.948;6.132;2022-08-19T03:29:47;17.00;89.70
48579;DHT22;34357;51.948;6.132;2022-08-19T03:32:13;16.90;89.50
48579;DHT22;34357;51.948;6.132;2022-08-19T03:34:39;16.90;89.50
48579;DHT22;34357;51.948;6.132;2022-08-19T03:37:10;16.90;89.60
48579;DHT22;34357;51.948;6.132;2022-08-19T03:39:40;16.90;89.70
48579;DHT22;34357;51.948;6.132;2022-08-19T03:42:06;16.80;89.70
48579;DHT22;34357;51.948;6.132;2022-08-19T03:44:32;16.80;89.70
48579;DHT22;34357;51.948;6.132;2022-08-19T03:46:59;16.80;89.70
48579;DHT22;34357;51.948;6.132;2022-08-19T03:49:29;16.80;89.70
48579;DHT22;34357;51.948;6.132;2022-08-19T03:51:57;16.80;89.70
48579;DHT22;34357;51.948;6.132;2022-08-19T03:54:24;16.70;89.60
48579;DHT22;34357;51.948;6.132;2022-08-19T03:56:52;16.70;89.70
48579;DHT22;34357;51.948;6.132;2022-08-19T03:59:30;16.70;89.80
48579;DHT22;34357;51.948;6.132;2022-08-19T04:01:58;16.70;89.80
48579;DHT22;34357;51.948;6.132;2022-08-19T04:04:25;16.70;89.70
48579;DHT22;34357;51.948;6.132;2022-08-19T04:06:51;16.60;89.90
48579;DHT22;34357;51.948;6.132;2022-08-19T04:09:18;16.60;89.70
48579;DHT22;34357;51.948;6.132;2022-08-19T04:11:48;16.60;89.70
48579;DHT22;34357;51.948;6.132;2022-08-19T04:14:18;16.60;89.70
48579;DHT22;34357;51.948;6.132;2022-08-19T04:16:45;16.60;89.80
48579;DHT22;34357;51.948;6.132;2022-08-19T04:19:12;16.50;89.80
48579;DHT22;34357;51.948;6.132;2022-08-19T04:21:38;16.50;89.80
48579;DHT22;34357;51.948;6.132;2022-08-19T04:24:04;16.50;89.80
48579;DHT22;34357;51.948;6.132;2022-08-19T04:26:34;16.50;89.80
48579;DHT22;34357;51.948;6.132;2022-08-19T04:29:04;16.40;89.80
48579;DHT22;34357;51.948;6.132;2022-08-19T04:31:31;16.40;89.80
48579;DHT22;34357;51.948;6.132;2022-08-19T04:34:02;16.40;89.90
48579;DHT22;34357;51.948;6.132;2022-08-19T04:36:32;16.40;90.00
48579;DHT22;34357;51.948;6.132;2022-08-19T04:39:09;16.40;90.00
48579;DHT22;34357;51.948;6.132;2022-08-19T04:41:35;16.40;89.90
48579;DHT22;34357;51.948;6.132;2022-08-19T04:44:19;16.40;90.00
48579;DHT22;34357;51.948;6.132;2022-08-19T04:46:47;16.40;89.90
48579;DHT22;34357;51.948;6.132;2022-08-19T04:49:14;16.40;89.90
48579;DHT22;34357;51.948;6.132;2022-08-19T04:51:44;16.40;90.10
48579;DHT22;34357;51.948;6.132;2022-08-19T04:54:10;16.40;90.00
48579;DHT22;34357;51.948;6.132;2022-08-19T04:56:36;16.40;90.00
48579;DHT22;34357;51.948;6.132;2022-08-19T04:59:02;16.40;90.10
48579;DHT22;34357;51.948;6.132;2022-08-19T05:01:32;16.40;90.10
48579;DHT22;34357;51.948;6.132;2022-08-19T05:04:00;16.40;90.10
48579;DHT22;34357;51.948;6.132;2022-08-19T05:06:26;16.50;90.10
48579;DHT22;34357;51.948;6.132;2022-08-19T05:08:53;16.50;90.10
48579;DHT22;34357;51.948;6.132;2022-08-19T05:11:25;16.50;90.20
48579;DHT22;34357;51.948;6.132;2022-08-19T05:13:52;16.50;90.10
48579;DHT22;34357;51.948;6.132;2022-08-19T05:16:19;16.60;90.20
48579;DHT22;34357;51.948;6.132;2022-08-19T05:18:46;16.60;90.10
48579;DHT22;34357;51.948;6.132;2022-08-19T05:21:30;16.60;90.10
48579;DHT22;34357;51.948;6.132;2022-08-19T05:24:16;16.60;90.10
48579;DHT22;34357;51.948;6.132;2022-08-19T05:26:44;16.60;90.30
48579;DHT22;34357;51.948;6.132;2022-08-19T05:29:16;16.70;90.30
48579;DHT22;34357;51.948;6.132;2022-08-19T05:31:41;16.80;89.70
48579;DHT22;34357;51.948;6.132;2022-08-19T05:34:08;16.90;89.80
48579;DHT22;34357;51.948;6.132;2022-08-19T05:36:37;16.90;89.70
48579;DHT22;34357;51.948;6.132;2022-08-19T05:39:05;17.00;89.70
48579;DHT22;34357;51.948;6.132;2022-08-19T05:41:31;17.10;89.80
48579;DHT22;34357;51.948;6.132;2022-08-19T05:43:58;17.20;89.70
48579;DHT22;34357;51.948;6.132;2022-08-19T05:46:24;17.20;89.70
48579;DHT22;34357;51.948;6.132;2022-08-19T05:48:50;17.20;89.70
48579;DHT22;34357;51.948;6.132;2022-08-19T05:51:16;17.30;89.60
48579;DHT22;34357;51.948;6.132;2022-08-19T05:53:42;17.30;89.60
48579;DHT22;34357;51.948;6.132;2022-08-19T05:56:12;17.30;90.00
48579;DHT22;34357;51.948;6.132;2022-08-19T05:58:39;17.40;90.30
48579;DHT22;34357;51.948;6.132;2022-08-19T06:01:11;17.50;90.20
48579;DHT22;34357;51.948;6.132;2022-08-19T06:03:37;17.60;90.00
48579;DHT22;34357;51.948;6.132;2022-08-19T06:06:07;17.70;90.10
48579;DHT22;34357;51.948;6.132;2022-08-19T06:08:33;17.70;90.10
48579;DHT22;34357;51.948;6.132;2022-08-19T06:11:13;17.90;90.10
48579;DHT22;34357;51.948;6.132;2022-08-19T06:13:39;18.00;89.90
48579;DHT22;34357;51.948;6.132;2022-08-19T06:16:05;18.20;89.60
48579;DHT22;34357;51.948;6.132;2022-08-19T06:18:31;18.20;89.50
48579;DHT22;34357;51.948;6.132;2022-08-19T06:20:57;18.30;89.40
48579;DHT22;34357;51.948;6.132;2022-08-19T06:23:23;18.40;89.20
48579;DHT22;34357;51.948;6.132;2022-08-19T06:25:49;18.50;88.50
48579;DHT22;34357;51.948;6.132;2022-08-19T06:28:14;18.60;88.80
48579;DHT22;34357;51.948;6.132;2022-08-19T06:30:40;19.00;87.70
48579;DHT22;34357;51.948;6.132;2022-08-19T06:33:07;19.50;86.90
48579;DHT22;34357;51.948;6.132;2022-08-19T06:35:33;19.90;85.00
48579;DHT22;34357;51.948;6.132;2022-08-19T06:38:03;20.40;84.10
48579;DHT22;34357;51.948;6.132;2022-08-19T06:40:30;20.60;83.10
48579;DHT22;34357;51.948;6.132;2022-08-19T06:42:56;20.80;82.90
48579;DHT22;34357;51.948;6.132;2022-08-19T06:45:24;20.80;82.80
48579;DHT22;34357;51.948;6.132;2022-08-19T06:47:51;20.90;82.20
48579;DHT22;34357;51.948;6.132;2022-08-19T06:50:19;21.00;82.00
48579;DHT22;34357;51.948;6.132;2022-08-19T06:52:45;21.30;81.60
48579;DHT22;34357;51.948;6.132;2022-08-19T06:55:12;21.40;81.10
48579;DHT22;34357;51.948;6.132;2022-08-19T06:57:37;21.20;81.50
48579;DHT22;34357;51.948;6.132;2022-08-19T07:00:05;21.20;81.40
48579;DHT22;34357;51.948;6.132;2022-08-19T07:02:32;21.40;80.80
48579;DHT22;34357;51.948;6.132;2022-08-19T07:04:57;21.40;80.50
48579;DHT22;34357;51.948;6.132;2022-08-19T07:07:23;21.50;80.90
48579;DHT22;34357;51.948;6.132;2022-08-19T07:09:50;21.90;79.60
48579;DHT22;34357;51.948;6.132;2022-08-19T07:12:18;21.90;79.20
48579;DHT22;34357;51.948;6.132;2022-08-19T07:14:43;21.90;79.50
48579;DHT22;34357;51.948;6.132;2022-08-19T07:17:11;21.80;80.00
48579;DHT22;34357;51.948;6.132;2022-08-19T07:19:39;22.10;79.80
48579;DHT22;34357;51.948;6.132;2022-08-19T07:22:06;22.40;78.60
48579;DHT22;34357;51.948;6.132;2022-08-19T07:24:33;22.30;78.30
48579;DHT22;34357;51.948;6.132;2022-08-19T07:27:01;22.30;78.00
48579;DHT22;34357;51.948;6.132;2022-08-19T07:29:30;22.40;78.30
48579;DHT22;34357;51.948;6.132;2022-08-19T07:31:56;22.30;78.20
48579;DHT22;34357;51.948;6.132;2022-08-19T07:34:24;22.00;78.60
48579;DHT22;34357;51.948;6.132;2022-08-19T07:36:51;22.00;79.90
48579;DHT22;34357;51.948;6.132;2022-08-19T07:39:24;22.30;79.50
48579;DHT22;34357;51.948;6.132;2022-08-19T07:41:49;22.20;78.90
48579;DHT22;34357;51.948;6.132;2022-08-19T07:44:16;22.10;79.40
48579;DHT22;34357;51.948;6.132;2022-08-19T07:46:45;22.40;79.40
48579;DHT22;34357;51.948;6.132;2022-08-19T07:49:12;22.30;78.60
48579;DHT22;34357;51.948;6.132;2022-08-19T07:51:45;22.20;79.00
48579;DHT22;34357;51.948;6.132;2022-08-19T07:54:11;22.00;79.30
48579;DHT22;34357;51.948;6.132;2022-08-19T07:56:37;22.20;79.10
48579;DHT22;34357;51.948;6.132;2022-08-19T07:59:03;22.20;79.70
48579;DHT22;34357;51.948;6.132;2022-08-19T08:01:30;22.50;78.90
48579;DHT22;34357;51.948;6.132;2022-08-19T08:03:57;22.60;77.70
48579;DHT22;34357;51.948;6.132;2022-08-19T08:06:42;22.10;78.40
48579;DHT22;34357;51.948;6.132;2022-08-19T08:09:31;22.60;77.40
48579;DHT22;34357;51.948;6.132;2022-08-19T08:12:00;22.90;76.90
48579;DHT22;34357;51.948;6.132;2022-08-19T08:14:33;23.00;75.90
48579;DHT22;34357;51.948;6.132;2022-08-19T08:17:03;22.90;76.50
48579;DHT22;34357;51.948;6.132;2022-08-19T08:19:30;22.80;76.30
48579;DHT22;34357;51.948;6.132;2022-08-19T08:21:58;22.80;76.20
48579;DHT22;34357;51.948;6.132;2022-08-19T08:24:25;22.90;76.20
48579;DHT22;34357;51.948;6.132;2022-08-19T08:26:51;23.10;76.90
48579;DHT22;34357;51.948;6.132;2022-08-19T08:29:17;23.60;73.10
48579;DHT22;34357;51.948;6.132;2022-08-19T08:31:45;23.40;74.50
48579;DHT22;34357;51.948;6.132;2022-08-19T08:34:12;23.20;73.20
48579;DHT22;34357;51.948;6.132;2022-08-19T08:36:40;23.50;75.10
48579;DHT22;34357;51.948;6.132;2022-08-19T08:39:08;23.60;72.50
48579;DHT22;34357;51.948;6.132;2022-08-19T08:41:53;23.70;71.70
48579;DHT22;34357;51.948;6.132;2022-08-19T08:47:25;23.70;72.40
48579;DHT22;34357;51.948;6.132;2022-08-19T08:50:08;23.80;71.00
48579;DHT22;34357;51.948;6.132;2022-08-19T08:52:43;24.00;71.10
48579;DHT22;34357;51.948;6.132;2022-08-19T08:55:19;24.00;71.70
48579;DHT22;34357;51.948;6.132;2022-08-19T09:00:23;24.20;70.40
48579;DHT22;34357;51.948;6.132;2022-08-19T09:02:49;24.20;70.30
48579;DHT22;34357;51.948;6.132;2022-08-19T09:05:15;24.30;68.60
48579;DHT22;34357;51.948;6.132;2022-08-19T09:08:13;24.20;68.20
48579;DHT22;34357;51.948;6.132;2022-08-19T09:10:44;24.30;67.80
48579;DHT22;34357;51.948;6.132;2022-08-19T09:16:05;24.80;65.60
48579;DHT22;34357;51.948;6.132;2022-08-19T09:18:43;25.20;65.20
48579;DHT22;34357;51.948;6.132;2022-08-19T09:21:09;24.80;62.70
48579;DHT22;34357;51.948;6.132;2022-08-19T09:23:36;25.00;63.30
48579;DHT22;34357;51.948;6.132;2022-08-19T09:26:10;25.50;61.60
48579;DHT22;34357;51.948;6.132;2022-08-19T09:28:39;25.30;61.30
48579;DHT22;34357;51.948;6.132;2022-08-19T09:31:07;25.20;59.70
48579;DHT22;34357;51.948;6.132;2022-08-19T09:33:33;25.00;61.10
48579;DHT22;34357;51.948;6.132;2022-08-19T09:36:20;25.20;58.40
48579;DHT22;34357;51.948;6.132;2022-08-19T09:38:47;25.30;58.40
48579;DHT22;34357;51.948;6.132;2022-08-19T09:41:16;25.20;58.30
48579;DHT22;34357;51.948;6.132;2022-08-19T09:43:45;24.90;56.50
48579;DHT22;34357;51.948;6.132;2022-08-19T09:46:11;24.90;58.40
48579;DHT22;34357;51.948;6.132;2022-08-19T09:48:38;25.00;58.40
48579;DHT22;34357;51.948;6.132;2022-08-19T09:51:10;25.00;58.80
48579;DHT22;34357;51.948;6.132;2022-08-19T09:53:37;25.40;60.20
48579;DHT22;34357;51.948;6.132;2022-08-19T09:56:05;25.70;57.10
48579;DHT22;34357;51.948;6.132;2022-08-19T09:58:32;25.60;56.50
48579;DHT22;34357;51.948;6.132;2022-08-19T10:00:58;25.60;53.80
48579;DHT22;34357;51.948;6.132;2022-08-19T10:03:26;25.50;57.00
48579;DHT22;34357;51.948;6.132;2022-08-19T10:05:53;25.70;53.10
48579;DHT22;34357;51.948;6.132;2022-08-19T10:08:26;25.50;54.90
48579;DHT22;34357;51.948;6.132;2022-08-19T10:10:52;25.60;55.90
48579;DHT22;34357;51.948;6.132;2022-08-19T10:13:23;25.90;55.60
48579;DHT22;34357;51.948;6.132;2022-08-19T10:15:51;25.90;56.10
48579;DHT22;34357;51.948;6.132;2022-08-19T10:18:19;25.90;55.10
48579;DHT22;34357;51.948;6.132;2022-08-19T10:20:47;26.10;55.90
48579;DHT22;34357;51.948;6.132;2022-08-19T10:23:14;25.90;56.30
48579;DHT22;34357;51.948;6.132;2022-08-19T10:25:41;26.00;56.70
48579;DHT22;34357;51.948;6.132;2022-08-19T10:28:06;25.80;59.30
48579;DHT22;34357;51.948;6.132;2022-08-19T10:30:34;25.70;61.40
48579;DHT22;34357;51.948;6.132;2022-08-19T10:33:00;25.40;64.00
48579;DHT22;34357;51.948;6.132;2022-08-19T10:35:26;25.70;63.80
48579;DHT22;34357;51.948;6.132;2022-08-19T10:37:55;25.70;63.90
48579;DHT22;34357;51.948;6.132;2022-08-19T10:40:26;25.80;63.00
48579;DHT22;34357;51.948;6.132;2022-08-19T10:42:53;26.00;64.20
48579;DHT22;34357;51.948;6.132;2022-08-19T10:45:19;25.90;61.40
48579;DHT22;34357;51.948;6.132;2022-08-19T10:47:47;25.50;61.80
48579;DHT22;34357;51.948;6.132;2022-08-19T10:50:13;25.40;64.40
48579;DHT22;34357;51.948;6.132;2022-08-19T10:52:57;25.50;63.70
48579;DHT22;34357;51.948;6.132;2022-08-19T10:55:28;25.60;62.30
48579;DHT22;34357;51.948;6.132;2022-08-19T10:58:15;25.50;63.60
48579;DHT22;34357;51.948;6.132;2022-08-19T11:00:42;25.00;63.90
48579;DHT22;34357;51.948;6.132;2022-08-19T11:03:10;25.20;64.00
48579;DHT22;34357;51.948;6.132;2022-08-19T11:05:36;25.30;64.90
48579;DHT22;34357;51.948;6.132;2022-08-19T11:08:03;24.90;62.90
48579;DHT22;34357;51.948;6.132;2022-08-19T11:10:29;25.20;61.50
48579;DHT22;34357;51.948;6.132;2022-08-19T11:12:55;25.20;61.70
48579;DHT22;34357;51.948;6.132;2022-08-19T11:15:21;25.10;60.80
48579;DHT22;34357;51.948;6.132;2022-08-19T11:17:47;25.10;62.20
48579;DHT22;34357;51.948;6.132;2022-08-19T11:20:14;25.40;61.60
48579;DHT22;34357;51.948;6.132;2022-08-19T11:22:40;25.40;60.20
48579;DHT22;34357;51.948;6.132;2022-08-19T11:25:08;25.70;60.20
48579;DHT22;34357;51.948;6.132;2022-08-19T11:27:40;25.50;58.90
48579;DHT22;34357;51.948;6.132;2022-08-19T11:30:12;25.40;59.80
48579;DHT22;34357;51.948;6.132;2022-08-19T11:32:41;25.40;58.10
48579;DHT22;34357;51.948;6.132;2022-08-19T11:35:07;25.20;58.50
48579;DHT22;34357;51.948;6.132;2022-08-19T11:37:33;24.90;60.30
48579;DHT22;34357;51.948;6.132;2022-08-19T11:40:04;25.00;58.80
48579;DHT22;34357;51.948;6.132;2022-08-19T11:42:30;25.00;59.40
48579;DHT22;34357;51.948;6.132;2022-08-19T11:45:14;25.40;58.50
48579;DHT22;34357;51.948;6.132;2022-08-19T11:47:40;25.50;56.70
48579;DHT22;34357;51.948;6.132;2022-08-19T11:50:06;25.50;56.30
48579;DHT22;34357;51.948;6.132;2022-08-19T11:52:32;25.50;58.10
48579;DHT22;34357;51.948;6.132;2022-08-19T11:54:57;25.40;58.10
48579;DHT22;34357;51.948;6.132;2022-08-19T11:57:23;25.50;58.30
48579;DHT22;34357;51.948;6.132;2022-08-19T11:59:51;25.70;57.90
48579;DHT22;34357;51.948;6.132;2022-08-19T12:02:18;25.30;58.70
48579;DHT22;34357;51.948;6.132;2022-08-19T12:04:44;25.30;60.50
48579;DHT22;34357;51.948;6.132;2022-08-19T12:07:10;25.60;59.80
48579;DHT22;34357;51.948;6.132;2022-08-19T12:09:36;25.70;57.30
48579;DHT22;34357;51.948;6.132;2022-08-19T12:12:02;25.70;57.40
48579;DHT22;34357;51.948;6.132;2022-08-19T12:14:28;25.70;55.20
48579;DHT22;34357;51.948;6.132;2022-08-19T12:16:56;25.90;55.20
48579;DHT22;34357;51.948;6.132;2022-08-19T12:19:22;25.90;56.40
48579;DHT22;34357;51.948;6.132;2022-08-19T12:21:48;25.90;56.50
48579;DHT22;34357;51.948;6.132;2022-08-19T12:24:13;26.20;55.90
48579;DHT22;34357;51.948;6.132;2022-08-19T12:26:39;26.30;56.40
48579;DHT22;34357;51.948;6.132;2022-08-19T12:29:04;26.40;57.00
48579;DHT22;34357;51.948;6.132;2022-08-19T12:31:31;26.20;55.60
48579;DHT22;34357;51.948;6.132;2022-08-19T12:33:57;26.30;56.60
48579;DHT22;34357;51.948;6.132;2022-08-19T12:36:23;26.50;56.90
48579;DHT22;34357;51.948;6.132;2022-08-19T12:38:50;26.20;57.30
48579;DHT22;34357;51.948;6.132;2022-08-19T12:41:17;26.50;57.30
48579;DHT22;34357;51.948;6.132;2022-08-19T12:43:44;26.50;56.30
48579;DHT22;34357;51.948;6.132;2022-08-19T12:46:10;26.50;53.70
48579;DHT22;34357;51.948;6.132;2022-08-19T12:48:37;26.60;54.80
48579;DHT22;34357;51.948;6.132;2022-08-19T12:51:08;26.50;55.80
48579;DHT22;34357;51.948;6.132;2022-08-19T12:53:35;26.30;56.10
48579;DHT22;34357;51.948;6.132;2022-08-19T12:56:01;26.20;56.40
48579;DHT22;34357;51.948;6.132;2022-08-19T12:58:27;26.30;54.90
48579;DHT22;34357;51.948;6.132;2022-08-19T13:00:54;26.60;56.80
48579;DHT22;34357;51.948;6.132;2022-08-19T13:03:20;26.50;55.60
48579;DHT22;34357;51.948;6.132;2022-08-19T13:05:47;26.40;55.70
48579;DHT22;34357;51.948;6.132;2022-08-19T13:08:15;26.40;56.70
48579;DHT22;34357;51.948;6.132;2022-08-19T13:10:42;26.30;56.80
48579;DHT22;34357;51.948;6.132;2022-08-19T13:13:09;26.40;57.80
48579;DHT22;34357;51.948;6.132;2022-08-19T13:15:38;26.50;57.50
48579;DHT22;34357;51.948;6.132;2022-08-19T13:18:06;26.50;58.20
48579;DHT22;34357;51.948;6.132;2022-08-19T13:20:32;26.40;57.40
48579;DHT22;34357;51.948;6.132;2022-08-19T13:22:58;26.60;55.80
48579;DHT22;34357;51.948;6.132;2022-08-19T13:25:24;26.80;56.20
48579;DHT22;34357;51.948;6.132;2022-08-19T13:27:51;26.50;57.10
48579;DHT22;34357;51.948;6.132;2022-08-19T13:30:17;26.40;57.90
48579;DHT22;34357;51.948;6.132;2022-08-19T13:33:02;26.50;58.30
48579;DHT22;34357;51.948;6.132;2022-08-19T13:36:00;26.90;58.10
48579;DHT22;34357;51.948;6.132;2022-08-19T13:38:27;26.90;56.50
48579;DHT22;34357;51.948;6.132;2022-08-19T13:40:54;27.00;54.70
48579;DHT22;34357;51.948;6.132;2022-08-19T13:43:22;26.90;56.70
48579;DHT22;34357;51.948;6.132;2022-08-19T13:45:54;26.80;55.60
48579;DHT22;34357;51.948;6.132;2022-08-19T13:48:21;26.70;55.70
48579;DHT22;34357;51.948;6.132;2022-08-19T13:50:47;26.80;56.10
48579;DHT22;34357;51.948;6.132;2022-08-19T13:53:14;26.90;56.60
48579;DHT22;34357;51.948;6.132;2022-08-19T13:55:42;27.00;56.60
48579;DHT22;34357;51.948;6.132;2022-08-19T13:58:08;27.00;54.90
48579;DHT22;34357;51.948;6.132;2022-08-19T14:00:37;27.00;55.50
48579;DHT22;34357;51.948;6.132;2022-08-19T14:03:04;27.10;54.80
48579;DHT22;34357;51.948;6.132;2022-08-19T14:05:30;27.00;56.00
48579;DHT22;34357;51.948;6.132;2022-08-19T14:07:57;27.20;54.30
48579;DHT22;34357;51.948;6.132;2022-08-19T14:10:24;27.20;55.50
48579;DHT22;34357;51.948;6.132;2022-08-19T14:12:53;27.40;55.40
48579;DHT22;34357;51.948;6.132;2022-08-19T14:15:21;27.30;54.10
48579;DHT22;34357;51.948;6.132;2022-08-19T14:17:46;27.10;54.70
48579;DHT22;34357;51.948;6.132;2022-08-19T14:20:14;27.30;55.20
48579;DHT22;34357;51.948;6.132;2022-08-19T14:22:41;27.40;56.00
48579;DHT22;34357;51.948;6.132;2022-08-19T14:25:11;27.40;53.90
48579;DHT22;34357;51.948;6.132;2022-08-19T14:27:38;27.70;54.60
48579;DHT22;34357;51.948;6.132;2022-08-19T14:30:09;27.60;54.10
48579;DHT22;34357;51.948;6.132;2022-08-19T14:32:35;27.50;56.50
48579;DHT22;34357;51.948;6.132;2022-08-19T14:35:01;27.50;55.50
48579;DHT22;34357;51.948;6.132;2022-08-19T14:37:27;27.50;56.40
48579;DHT22;34357;51.948;6.132;2022-08-19T14:39:53;27.60;55.10
48579;DHT22;34357;51.948;6.132;2022-08-19T14:42:19;27.50;54.80
48579;DHT22;34357;51.948;6.132;2022-08-19T14:44:45;27.20;55.20
48579;DHT22;34357;51.948;6.132;2022-08-19T14:47:10;26.70;57.30
48579;DHT22;34357;51.948;6.132;2022-08-19T14:49:37;26.50;58.90
48579;DHT22;34357;51.948;6.132;2022-08-19T14:52:03;26.40;59.60
48579;DHT22;34357;51.948;6.132;2022-08-19T14:54:29;26.10;60.80
48579;DHT22;34357;51.948;6.132;2022-08-19T14:56:55;26.00;61.80
48579;DHT22;34357;51.948;6.132;2022-08-19T14:59:21;26.30;60.60
48579;DHT22;34357;51.948;6.132;2022-08-19T15:01:46;26.50;60.50
48579;DHT22;34357;51.948;6.132;2022-08-19T15:04:12;26.10;61.20
48579;DHT22;34357;51.948;6.132;2022-08-19T15:06:38;25.90;61.50
48579;DHT22;34357;51.948;6.132;2022-08-19T15:09:05;26.00;62.80
48579;DHT22;34357;51.948;6.132;2022-08-19T15:11:31;26.10;62.30
48579;DHT22;34357;51.948;6.132;2022-08-19T15:13:58;26.00;62.10
48579;DHT22;34357;51.948;6.132;2022-08-19T15:16:25;25.60;62.40
48579;DHT22;34357;51.948;6.132;2022-08-19T15:18:57;25.50;63.00
48579;DHT22;34357;51.948;6.132;2022-08-19T15:21:23;25.60;63.60
48579;DHT22;34357;51.948;6.132;2022-08-19T15:23:50;25.50;63.90
48579;DHT22;34357;51.948;6.132;2022-08-19T15:26:18;25.50;64.90
48579;DHT22;34357;51.948;6.132;2022-08-19T15:28:44;25.40;64.40
48579;DHT22;34357;51.948;6.132;2022-08-19T15:31:11;25.50;64.60
48579;DHT22;34357;51.948;6.132;2022-08-19T15:33:38;25.20;64.20
48579;DHT22;34357;51.948;6.132;2022-08-19T15:36:07;24.90;65.20
48579;DHT22;34357;51.948;6.132;2022-08-19T15:38:34;25.10;65.10
48579;DHT22;34357;51.948;6.132;2022-08-19T15:41:01;25.30;65.30
48579;DHT22;34357;51.948;6.132;2022-08-19T15:43:47;25.40;64.30